sensor_id;sensor_type;location;lat;lon;timestamp;pressure;altitude;pressure_sealevel;temperature;humidity
53023;BME280;38913;44.338;11.206;2023-07-16T05:20:36;99545.91;;;22.64;nan
53023;BME280;38913;44.338;11.206;2023-07-16T05:23:01;99544.63;;;23.44;nan
53023;BME280;38913;44.338;11.206;2023-07-16T05:25:26;99625.69;;;24.64;nan
53023;BME280;38913;44.338;11.206;2023-07-16T05:27:52;99613.59;;;24.04;nan
53023;BME280;38913;44.338;11.206;2023-07-16T05:30:17;99581.34;;;23.49;nan
53023;BME280;38913;44.338;11.206;2023-07-16T05:32:42;99409.88;;;22.51;nan
53023;BME280;38913;44.338;11.206;2023-07-16T05:35:08;99585.53;;;24.36;nan
53023;BME280;38913;44.338;11.206;2023-07-16T05:37:33;99585.50;;;22.96;nan
53023;BME280;38913;44.338;11.206;2023-07-16T05:39:59;99604.38;;;25.03;nan
53023;BME280;38913;44.338;11.206;2023-07-16T05:42:24;99584.06;;;23.81;nan
53023;BME280;38913;44.338;11.206;2023-07-16T05:44:50;99548.72;;;25.16;nan
53023;BME280;38913;44.338;11.206;2023-07-16T05:47:15;99663.47;;;26.44;nan
53023;BME280;38913;44.338;11.206;2023-07-16T05:49:41;99684.25;;;27.47;nan
53023;BME280;38913;44.338;11.206;2023-07-16T05:52:06;99654.56;;;25.96;nan
53023;BME280;38913;44.338;11.206;2023-07-16T05:54:32;99673.31;;;27.22;nan
53023;BME280;38913;44.338;11.206;2023-07-16T05:56:57;99651.97;;;27.08;nan
53023;BME280;38913;44.338;11.206;2023-07-16T05:59:23;99666.72;;;27.53;nan
53023;BME280;38913;44.338;11.206;2023-07-16T06:01:48;99719.78;;;28.13;nan
53023;BME280;38913;44.338;11.206;2023-07-16T06:04:13;99723.75;;;30.29;nan
53023;BME280;38913;44.338;11.206;2023-07-16T06:06:39;99651.66;;;30.00;nan
53023;BME280;38913;44.338;11.206;2023-07-16T06:09:04;99772.94;;;30.72;nan
53023;BME280;38913;44.338;11.206;2023-07-16T06:11:30;99698.72;;;29.91;nan
53023;BME280;38913;44.338;11.206;2023-07-16T06:13:55;99777.13;;;30.86;nan
53023;BME280;38913;44.338;11.206;2023-07-16T06:16:21;99749.09;;;29.60;nan
53023;BME280;38913;44.338;11.206;2023-07-16T06:18:46;99771.41;;;33.98;nan
53023;BME280;38913;44.338;11.206;2023-07-16T06:21:11;99780.50;;;32.57;nan
53023;BME280;38913;44.338;11.206;2023-07-16T06:23:38;99768.06;;;33.75;nan
53023;BME280;38913;44.338;11.206;2023-07-16T06:26:03;99651.16;;;31.17;nan
53023;BME280;38913;44.338;11.206;2023-07-16T06:28:29;99752.34;;;31.63;nan
53023;BME280;38913;44.338;11.206;2023-07-16T06:30:54;99792.28;;;31.39;nan
53023;BME280;38913;44.338;11.206;2023-07-16T06:33:20;99698.22;;;31.38;nan
53023;BME280;38913;44.338;11.206;2023-07-16T06:35:46;99697.13;;;33.82;nan
53023;BME280;38913;44.338;11.206;2023-07-16T06:38:15;99801.16;;;38.07;nan
53023;BME280;38913;44.338;11.206;2023-07-16T06:40:50;99955.53;;;37.83;nan
53023;BME280;38913;44.338;11.206;2023-07-16T06:43:16;99851.91;;;35.51;nan
53023;BME280;38913;44.338;11.206;2023-07-16T06:45:42;99903.22;;;33.88;nan
53023;BME280;38913;44.338;11.206;2023-07-16T06:48:08;99846.81;;;33.15;nan
53023;BME280;38913;44.338;11.206;2023-07-16T06:50:33;99880.59;;;33.91;nan
53023;BME280;38913;44.338;11.206;2023-07-16T06:52:58;99897.13;;;37.64;nan
53023;BME280;38913;44.338;11.206;2023-07-16T06:55:24;99864.00;;;40.83;nan
53023;BME280;38913;44.338;11.206;2023-07-16T06:57:49;99891.91;;;41.90;nan
53023;BME280;38913;44.338;11.206;2023-07-16T07:00:15;99876.09;;;43.20;nan
53023;BME280;38913;44.338;11.206;2023-07-16T07:02:41;99898.72;;;44.65;nan
53023;BME280;38913;44.338;11.206;2023-07-16T07:05:07;99796.34;;;44.18;nan
53023;BME280;38913;44.338;11.206;2023-07-16T07:07:32;99869.63;;;41.97;nan
53023;BME280;38913;44.338;11.206;2023-07-16T07:09:58;99869.78;;;42.89;nan
53023;BME280;38913;44.338;11.206;2023-07-16T07:12:23;99862.16;;;40.49;nan
53023;BME280;38913;44.338;11.206;2023-07-16T07:14:48;99874.44;;;43.22;nan
53023;BME280;38913;44.338;11.206;2023-07-16T07:17:14;99886.91;;;46.73;nan
53023;BME280;38913;44.338;11.206;2023-07-16T07:19:41;99876.81;;;40.18;nan
53023;BME280;38913;44.338;11.206;2023-07-16T07:22:06;99852.63;;;45.12;nan
53023;BME280;38913;44.338;11.206;2023-07-16T07:24:32;99915.16;;;45.39;nan
53023;BME280;38913;44.338;11.206;2023-07-16T07:26:57;99918.88;;;41.45;nan
53023;BME280;38913;44.338;11.206;2023-07-16T07:29:22;99902.56;;;46.20;nan
53023;BME280;38913;44.338;11.206;2023-07-16T07:31:48;99875.03;;;46.13;nan
53023;BME280;38913;44.338;11.206;2023-07-16T07:34:13;99905.78;;;46.97;nan
53023;BME280;38913;44.338;11.206;2023-07-16T07:36:39;99863.53;;;41.08;nan
53023;BME280;38913;44.338;11.206;2023-07-16T07:39:04;99902.34;;;39.25;nan
53023;BME280;38913;44.338;11.206;2023-07-16T07:41:29;99909.22;;;38.56;nan
53023;BME280;38913;44.338;11.206;2023-07-16T07:43:55;99896.38;;;37.64;nan
53023;BME280;38913;44.338;11.206;2023-07-16T07:46:20;99843.94;;;36.89;nan
53023;BME280;38913;44.338;11.206;2023-07-16T07:48:45;99883.81;;;37.67;nan
53023;BME280;38913;44.338;11.206;2023-07-16T07:51:11;99835.31;;;36.25;nan
53023;BME280;38913;44.338;11.206;2023-07-16T07:53:37;99867.19;;;34.54;nan
53023;BME280;38913;44.338;11.206;2023-07-16T07:56:02;99840.63;;;35.67;nan
53023;BME280;38913;44.338;11.206;2023-07-16T07:58:28;99865.81;;;36.09;nan
53023;BME280;38913;44.338;11.206;2023-07-16T08:00:53;99805.09;;;34.06;nan
53023;BME280;38913;44.338;11.206;2023-07-16T08:03:18;99735.00;;;35.66;nan
53023;BME280;38913;44.338;11.206;2023-07-16T08:05:44;99749.81;;;37.21;nan
53023;BME280;38913;44.338;11.206;2023-07-16T08:08:09;99768.72;;;36.10;nan
53023;BME280;38913;44.338;11.206;2023-07-16T08:10:34;99766.41;;;36.41;nan
53023;BME280;38913;44.338;11.206;2023-07-16T08:13:00;99793.97;;;35.49;nan
53023;BME280;38913;44.338;11.206;2023-07-16T08:15:25;99730.38;;;34.96;nan
53023;BME280;38913;44.338;11.206;2023-07-16T08:17:50;99765.53;;;36.95;nan
53023;BME280;38913;44.338;11.206;2023-07-16T08:20:16;99721.56;;;37.21;nan
53023;BME280;38913;44.338;11.206;2023-07-16T08:22:41;99782.13;;;39.15;nan
53023;BME280;38913;44.338;11.206;2023-07-16T08:25:07;99760.69;;;42.57;nan
53023;BME280;38913;44.338;11.206;2023-07-16T08:27:34;99807.00;;;40.93;nan
53023;BME280;38913;44.338;11.206;2023-07-16T08:29:59;99803.75;;;43.31;nan
53023;BME280;38913;44.338;11.206;2023-07-16T08:32:25;99801.72;;;42.29;nan
53023;BME280;38913;44.338;11.206;2023-07-16T08:34:50;99718.28;;;46.72;nan
53023;BME280;38913;44.338;11.206;2023-07-16T08:37:16;99837.63;;;50.87;nan
53023;BME280;38913;44.338;11.206;2023-07-16T08:39:41;99847.19;;;52.38;nan
53023;BME280;38913;44.338;11.206;2023-07-16T08:42:09;99751.16;;;45.80;nan
53023;BME280;38913;44.338;11.206;2023-07-16T08:44:38;99827.81;;;42.61;nan
53023;BME280;38913;44.338;11.206;2023-07-16T08:47:07;99811.03;;;40.88;nan
53023;BME280;38913;44.338;11.206;2023-07-16T08:49:34;99812.59;;;46.88;nan
53023;BME280;38913;44.338;11.206;2023-07-16T08:52:01;99767.78;;;50.31;nan
53023;BME280;38913;44.338;11.206;2023-07-16T08:54:27;99868.75;;;53.49;nan
53023;BME280;38913;44.338;11.206;2023-07-16T08:56:52;99931.78;;;51.32;nan
53023;BME280;38913;44.338;11.206;2023-07-16T08:59:18;99862.03;;;52.44;nan
53023;BME280;38913;44.338;11.206;2023-07-16T09:01:46;99905.38;;;45.25;nan
53023;BME280;38913;44.338;11.206;2023-07-16T09:04:12;99831.66;;;44.05;nan
53023;BME280;38913;44.338;11.206;2023-07-16T09:06:37;99886.09;;;42.38;nan
53023;BME280;38913;44.338;11.206;2023-07-16T09:09:03;99869.06;;;41.49;nan
53023;BME280;38913;44.338;11.206;2023-07-16T09:11:28;99867.22;;;38.94;nan
53023;BME280;38913;44.338;11.206;2023-07-16T09:13:53;99771.44;;;38.40;nan
53023;BME280;38913;44.338;11.206;2023-07-16T09:16:19;99844.72;;;38.61;nan
53023;BME280;38913;44.338;11.206;2023-07-16T09:18:46;99817.44;;;37.72;nan
53023;BME280;38913;44.338;11.206;2023-07-16T09:21:12;99829.69;;;38.27;nan
53023;BME280;38913;44.338;11.206;2023-07-16T09:23:38;99840.00;;;37.12;nan
53023;BME280;38913;44.338;11.206;2023-07-16T09:26:04;99797.41;;;34.64;nan
53023;BME280;38913;44.338;11.206;2023-07-16T09:28:33;99758.09;;;33.93;nan
53023;BME280;38913;44.338;11.206;2023-07-16T09:31:06;99733.13;;;33.95;nan
53023;BME280;38913;44.338;11.206;2023-07-16T09:33:33;99836.88;;;36.37;nan
53023;BME280;38913;44.338;11.206;2023-07-16T09:35:59;99722.53;;;34.31;nan
53023;BME280;38913;44.338;11.206;2023-07-16T09:38:24;99823.59;;;34.69;nan
53023;BME280;38913;44.338;11.206;2023-07-16T09:40:52;99820.34;;;35.86;nan
53023;BME280;38913;44.338;11.206;2023-07-16T09:43:18;99826.41;;;35.40;nan
53023;BME280;38913;44.338;11.206;2023-07-16T09:45:44;99808.94;;;34.92;nan
53023;BME280;38913;44.338;11.206;2023-07-16T09:48:09;99838.13;;;35.40;nan
53023;BME280;38913;44.338;11.206;2023-07-16T09:50:36;99826.22;;;35.88;nan
53023;BME280;38913;44.338;11.206;2023-07-16T09:53:04;99825.44;;;35.06;nan
53023;BME280;38913;44.338;11.206;2023-07-16T09:55:34;99740.03;;;34.75;nan
53023;BME280;38913;44.338;11.206;2023-07-16T09:58:02;99748.78;;;35.03;nan
53023;BME280;38913;44.338;11.206;2023-07-16T10:00:29;99746.31;;;35.65;nan
53023;BME280;38913;44.338;11.206;2023-07-16T10:02:55;99761.13;;;33.81;nan
53023;BME280;38913;44.338;11.206;2023-07-16T10:05:28;99824.16;;;34.89;nan
53023;BME280;38913;44.338;11.206;2023-07-16T10:07:56;99824.53;;;34.88;nan
53023;BME280;38913;44.338;11.206;2023-07-16T10:10:26;99800.31;;;34.90;nan
53023;BME280;38913;44.338;11.206;2023-07-16T10:13:01;99815.53;;;35.54;nan
53023;BME280;38913;44.338;11.206;2023-07-16T10:15:28;99838.47;;;34.72;nan
53023;BME280;38913;44.338;11.206;2023-07-16T10:17:55;99821.31;;;33.92;nan
53023;BME280;38913;44.338;11.206;2023-07-16T10:20:31;99759.75;;;34.02;nan
53023;BME280;38913;44.338;11.206;2023-07-16T10:22:58;99787.22;;;34.16;nan
53023;BME280;38913;44.338;11.206;2023-07-16T10:25:26;99738.75;;;33.37;nan
53023;BME280;38913;44.338;11.206;2023-07-16T10:27:52;99737.78;;;33.22;nan
53023;BME280;38913;44.338;11.206;2023-07-16T10:30:18;99747.00;;;33.10;nan
53023;BME280;38913;44.338;11.206;2023-07-16T10:32:44;99743.44;;;33.37;nan
53023;BME280;38913;44.338;11.206;2023-07-16T10:35:10;99739.03;;;32.98;nan
53023;BME280;38913;44.338;11.206;2023-07-16T10:37:36;99813.94;;;33.62;nan
53023;BME280;38913;44.338;11.206;2023-07-16T10:40:03;99795.56;;;33.93;nan
53023;BME280;38913;44.338;11.206;2023-07-16T10:42:29;99820.72;;;33.75;nan
53023;BME280;38913;44.338;11.206;2023-07-16T10:44:58;99807.47;;;33.77;nan
53023;BME280;38913;44.338;11.206;2023-07-16T10:47:32;99737.84;;;33.60;nan
53023;BME280;38913;44.338;11.206;2023-07-16T10:49:57;99780.09;;;33.39;nan
53023;BME280;38913;44.338;11.206;2023-07-16T10:52:24;99810.56;;;34.06;nan
53023;BME280;38913;44.338;11.206;2023-07-16T10:54:52;99803.53;;;33.71;nan
53023;BME280;38913;44.338;11.206;2023-07-16T10:57:25;99801.25;;;34.15;nan
53023;BME280;38913;44.338;11.206;2023-07-16T10:59:52;99745.34;;;33.67;nan
53023;BME280;38913;44.338;11.206;2023-07-16T11:02:18;99717.69;;;33.34;nan
53023;BME280;38913;44.338;11.206;2023-07-16T11:04:45;99787.28;;;33.85;nan
53023;BME280;38913;44.338;11.206;2023-07-16T11:07:12;99800.97;;;33.89;nan
53023;BME280;38913;44.338;11.206;2023-07-16T11:09:51;99790.47;;;34.29;nan
53023;BME280;38913;44.338;11.206;2023-07-16T11:12:21;99780.94;;;34.57;nan
53023;BME280;38913;44.338;11.206;2023-07-16T11:14:48;99723.09;;;34.03;nan
53023;BME280;38913;44.338;11.206;2023-07-16T11:17:15;99760.06;;;34.34;nan
53023;BME280;38913;44.338;11.206;2023-07-16T11:19:44;99829.97;;;34.39;nan
53023;BME280;38913;44.338;11.206;2023-07-16T11:22:10;99792.59;;;34.05;nan
53023;BME280;38913;44.338;11.206;2023-07-16T11:24:43;99844.00;;;33.99;nan
53023;BME280;38913;44.338;11.206;2023-07-16T11:27:19;99796.78;;;33.61;nan
53023;BME280;38913;44.338;11.206;2023-07-16T11:29:50;99803.47;;;34.02;nan
53023;BME280;38913;44.338;11.206;2023-07-16T11:32:43;99817.09;;;34.39;nan
53023;BME280;38913;44.338;11.206;2023-07-16T11:35:15;99811.41;;;34.18;nan
53023;BME280;38913;44.338;11.206;2023-07-16T11:37:40;99784.47;;;34.58;nan
53023;BME280;38913;44.338;11.206;2023-07-16T11:40:08;99734.88;;;33.72;nan
53023;BME280;38913;44.338;11.206;2023-07-16T11:42:38;99706.88;;;33.45;nan
53023;BME280;38913;44.338;11.206;2023-07-16T11:45:05;99773.19;;;34.21;nan
53023;BME280;38913;44.338;11.206;2023-07-16T11:47:39;99742.91;;;33.58;nan
53023;BME280;38913;44.338;11.206;2023-07-16T11:50:05;99773.59;;;33.82;nan
53023;BME280;38913;44.338;11.206;2023-07-16T11:52:31;99859.88;;;35.11;nan
53023;BME280;38913;44.338;11.206;2023-07-16T11:54:57;99762.41;;;34.36;nan
53023;BME280;38913;44.338;11.206;2023-07-16T11:57:28;99724.78;;;34.18;nan
53023;BME280;38913;44.338;11.206;2023-07-16T11:59:53;99737.25;;;34.16;nan
53023;BME280;38913;44.338;11.206;2023-07-16T12:02:20;99756.88;;;34.25;nan
53023;BME280;38913;44.338;11.206;2023-07-16T12:04:45;99753.78;;;34.34;nan
53023;BME280;38913;44.338;11.206;2023-07-16T12:07:10;99767.78;;;34.25;nan
53023;BME280;38913;44.338;11.206;2023-07-16T12:09:36;99742.75;;;34.19;nan
53023;BME280;38913;44.338;11.206;2023-07-16T12:12:01;99727.03;;;34.05;nan
53023;BME280;38913;44.338;11.206;2023-07-16T12:14:27;99748.22;;;34.19;nan
53023;BME280;38913;44.338;11.206;2023-07-16T12:16:52;99714.25;;;34.20;nan
53023;BME280;38913;44.338;11.206;2023-07-16T12:19:18;99766.81;;;34.03;nan
53023;BME280;38913;44.338;11.206;2023-07-16T12:21:43;99766.38;;;34.42;nan
53023;BME280;38913;44.338;11.206;2023-07-16T12:24:09;99751.31;;;34.18;nan
53023;BME280;38913;44.338;11.206;2023-07-16T12:26:35;99759.53;;;34.66;nan
53023;BME280;38913;44.338;11.206;2023-07-16T12:29:01;99757.06;;;34.50;nan
53023;BME280;38913;44.338;11.206;2023-07-16T12:31:30;99761.88;;;34.19;nan
53023;BME280;38913;44.338;11.206;2023-07-16T12:33:56;99751.47;;;34.36;nan
53023;BME280;38913;44.338;11.206;2023-07-16T12:36:22;99678.47;;;33.91;nan
53023;BME280;38913;44.338;11.206;2023-07-16T12:38:47;99749.88;;;34.35;nan
53023;BME280;38913;44.338;11.206;2023-07-16T12:41:12;99732.56;;;34.12;nan
53023;BME280;38913;44.338;11.206;2023-07-16T12:43:40;99651.09;;;33.80;nan
53023;BME280;38913;44.338;11.206;2023-07-16T12:46:05;99732.28;;;33.87;nan
53023;BME280;38913;44.338;11.206;2023-07-16T12:48:31;99683.81;;;33.77;nan
53023;BME280;38913;44.338;11.206;2023-07-16T12:50:57;99693.38;;;33.97;nan
53023;BME280;38913;44.338;11.206;2023-07-16T12:53:24;99743.78;;;34.52;nan
53023;BME280;38913;44.338;11.206;2023-07-16T12:55:49;99735.44;;;34.90;nan
53023;BME280;38913;44.338;11.206;2023-07-16T12:58:15;99741.09;;;34.56;nan
53023;BME280;38913;44.338;11.206;2023-07-16T13:00:40;99660.41;;;33.76;nan
53023;BME280;38913;44.338;11.206;2023-07-16T13:03:06;99745.13;;;34.24;nan
53023;BME280;38913;44.338;11.206;2023-07-16T13:05:35;99635.41;;;33.73;nan
53023;BME280;38913;44.338;11.206;2023-07-16T13:08:00;99720.22;;;34.33;nan
53023;BME280;38913;44.338;11.206;2023-07-16T13:10:26;99728.78;;;34.32;nan
53023;BME280;38913;44.338;11.206;2023-07-16T13:12:51;99755.50;;;34.49;nan
53023;BME280;38913;44.338;11.206;2023-07-16T13:15:16;99729.19;;;34.34;nan
53023;BME280;38913;44.338;11.206;2023-07-16T13:17:42;99670.13;;;34.15;nan
53023;BME280;38913;44.338;11.206;2023-07-16T13:20:07;99677.81;;;34.02;nan
53023;BME280;38913;44.338;11.206;2023-07-16T13:22:35;99764.97;;;34.59;nan
53023;BME280;38913;44.338;11.206;2023-07-16T13:25:00;99700.97;;;34.71;nan
53023;BME280;38913;44.338;11.206;2023-07-16T13:27:25;99670.38;;;34.54;nan
53023;BME280;38913;44.338;11.206;2023-07-16T13:29:51;99752.38;;;34.54;nan
53023;BME280;38913;44.338;11.206;2023-07-16T13:32:16;99682.75;;;34.37;nan
53023;BME280;38913;44.338;11.206;2023-07-16T13:34:42;99734.59;;;34.83;nan
53023;BME280;38913;44.338;11.206;2023-07-16T13:37:07;99686.06;;;34.58;nan
53023;BME280;38913;44.338;11.206;2023-07-16T13:39:33;99747.16;;;34.87;nan
53023;BME280;38913;44.338;11.206;2023-07-16T13:41:58;99680.69;;;34.83;nan
53023;BME280;38913;44.338;11.206;2023-07-16T13:44:24;99730.94;;;35.24;nan
53023;BME280;38913;44.338;11.206;2023-07-16T13:46:49;99745.44;;;34.64;nan
53023;BME280;38913;44.338;11.206;2023-07-16T13:49:14;99751.88;;;34.94;nan
53023;BME280;38913;44.338;11.206;2023-07-16T13:51:40;99681.94;;;34.97;nan
53023;BME280;38913;44.338;11.206;2023-07-16T13:54:05;99705.81;;;35.03;nan
53023;BME280;38913;44.338;11.206;2023-07-16T13:56:31;99747.91;;;34.84;nan
53023;BME280;38913;44.338;11.206;2023-07-16T13:58:56;99674.38;;;34.68;nan
53023;BME280;38913;44.338;11.206;2023-07-16T14:01:22;99746.44;;;35.01;nan
53023;BME280;38913;44.338;11.206;2023-07-16T14:03:48;99743.31;;;35.03;nan
53023;BME280;38913;44.338;11.206;2023-07-16T14:06:13;99746.38;;;34.87;nan
53023;BME280;38913;44.338;11.206;2023-07-16T14:08:39;99718.09;;;34.61;nan
53023;BME280;38913;44.338;11.206;2023-07-16T14:11:04;99708.00;;;34.72;nan
53023;BME280;38913;44.338;11.206;2023-07-16T14:13:30;99734.00;;;35.07;nan
53023;BME280;38913;44.338;11.206;2023-07-16T14:15:55;99713.56;;;34.90;nan
53023;BME280;38913;44.338;11.206;2023-07-16T14:18:21;99742.53;;;35.06;nan
53023;BME280;38913;44.338;11.206;2023-07-16T14:20:46;99750.44;;;35.15;nan
53023;BME280;38913;44.338;11.206;2023-07-16T14:23:12;99671.97;;;34.56;nan
53023;BME280;38913;44.338;11.206;2023-07-16T14:25:37;99717.50;;;34.97;nan
53023;BME280;38913;44.338;11.206;2023-07-16T14:28:02;99780.25;;;35.34;nan
53023;BME280;38913;44.338;11.206;2023-07-16T14:30:28;99701.81;;;34.86;nan
53023;BME280;38913;44.338;11.206;2023-07-16T14:32:54;99670.44;;;34.65;nan
53023;BME280;38913;44.338;11.206;2023-07-16T14:35:20;99701.72;;;34.68;nan
53023;BME280;38913;44.338;11.206;2023-07-16T14:37:45;99683.63;;;34.52;nan
53023;BME280;38913;44.338;11.206;2023-07-16T14:40:11;99768.44;;;35.19;nan
53023;BME280;38913;44.338;11.206;2023-07-16T14:42:36;99766.84;;;35.11;nan
53023;BME280;38913;44.338;11.206;2023-07-16T14:45:02;99746.16;;;35.21;nan
53023;BME280;38913;44.338;11.206;2023-07-16T14:47:29;99779.38;;;35.19;nan
53023;BME280;38913;44.338;11.206;2023-07-16T14:49:55;99743.41;;;35.14;nan
53023;BME280;38913;44.338;11.206;2023-07-16T14:52:20;99777.06;;;35.18;nan
53023;BME280;38913;44.338;11.206;2023-07-16T14:54:45;99773.91;;;35.16;nan
53023;BME280;38913;44.338;11.206;2023-07-16T14:57:11;99746.31;;;34.76;nan
53023;BME280;38913;44.338;11.206;2023-07-16T14:59:36;99693.72;;;33.96;nan
53023;BME280;38913;44.338;11.206;2023-07-16T15:02:03;99778.41;;;34.86;nan
53023;BME280;38913;44.338;11.206;2023-07-16T15:04:29;99856.91;;;35.38;nan
53023;BME280;38913;44.338;11.206;2023-07-16T15:06:54;99728.56;;;34.03;nan
53023;BME280;38913;44.338;11.206;2023-07-16T15:09:21;99764.31;;;34.32;nan
53023;BME280;38913;44.338;11.206;2023-07-16T15:11:47;99702.09;;;34.14;nan
53023;BME280;38913;44.338;11.206;2023-07-16T15:14:12;99772.75;;;34.61;nan
53023;BME280;38913;44.338;11.206;2023-07-16T15:16:38;99679.03;;;34.08;nan
53023;BME280;38913;44.338;11.206;2023-07-16T15:19:03;99691.97;;;34.15;nan
53023;BME280;38913;44.338;11.206;2023-07-16T15:21:28;99774.81;;;34.26;nan
53023;BME280;38913;44.338;11.206;2023-07-16T15:23:54;99711.94;;;34.22;nan
53023;BME280;38913;44.338;11.206;2023-07-16T15:26:20;99763.78;;;34.57;nan
53023;BME280;38913;44.338;11.206;2023-07-16T15:28:45;99773.59;;;34.65;nan
53023;BME280;38913;44.338;11.206;2023-07-16T15:31:10;99755.66;;;34.71;nan
53023;BME280;38913;44.338;11.206;2023-07-16T15:33:37;99721.25;;;34.63;nan
53023;BME280;38913;44.338;11.206;2023-07-16T15:36:03;99740.81;;;34.72;nan
53023;BME280;38913;44.338;11.206;2023-07-16T15:38:29;99686.75;;;34.02;nan
53023;BME280;38913;44.338;11.206;2023-07-16T15:40:54;99722.25;;;34.47;nan
53023;BME280;38913;44.338;11.206;2023-07-16T15:43:20;99721.03;;;34.37;nan
53023;BME280;38913;44.338;11.206;2023-07-16T15:45:45;99731.22;;;34.44;nan
53023;BME280;38913;44.338;11.206;2023-07-16T15:48:11;99722.63;;;34.42;nan
53023;BME280;38913;44.338;11.206;2023-07-16T15:50:37;99745.13;;;34.24;nan
53023;BME280;38913;44.338;11.206;2023-07-16T15:53:03;99721.75;;;34.31;nan
53023;BME280;38913;44.338;11.206;2023-07-16T15:55:28;99665.03;;;33.71;nan
53023;BME280;38913;44.338;11.206;2023-07-16T15:57:54;99717.63;;;34.03;nan
53023;BME280;38913;44.338;11.206;2023-07-16T16:00:20;99734.03;;;34.03;nan
53023;BME280;38913;44.338;11.206;2023-07-16T16:02:47;99716.91;;;34.09;nan
53023;BME280;38913;44.338;11.206;2023-07-16T16:05:14;99833.94;;;34.45;nan
53023;BME280;38913;44.338;11.206;2023-07-16T16:07:43;99725.25;;;33.86;nan
53023;BME280;38913;44.338;11.206;2023-07-16T16:10:14;99687.72;;;33.76;nan
53023;BME280;38913;44.338;11.206;2023-07-16T16:12:42;99732.72;;;33.89;nan
53023;BME280;38913;44.338;11.206;2023-07-16T16:15:08;99722.91;;;33.84;nan
53023;BME280;38913;44.338;11.206;2023-07-16T16:17:33;99631.31;;;33.53;nan
53023;BME280;38913;44.338;11.206;2023-07-16T16:20:00;99692.69;;;33.66;nan
53023;BME280;38913;44.338;11.206;2023-07-16T16:22:26;99706.44;;;33.77;nan
53023;BME280;38913;44.338;11.206;2023-07-16T16:24:52;99699.22;;;33.58;nan
53023;BME280;38913;44.338;11.206;2023-07-16T16:27:17;99713.78;;;33.69;nan
53023;BME280;38913;44.338;11.206;2023-07-16T16:29:42;99716.56;;;33.73;nan
53023;BME280;38913;44.338;11.206;2023-07-16T16:32:08;99622.03;;;33.19;nan
53023;BME280;38913;44.338;11.206;2023-07-16T16:34:35;99702.16;;;33.42;nan
53023;BME280;38913;44.338;11.206;2023-07-16T16:37:01;99707.19;;;33.40;nan
53023;BME280;38913;44.338;11.206;2023-07-16T16:39:26;99706.19;;;33.52;nan
53023;BME280;38913;44.338;11.206;2023-07-16T16:41:51;99710.66;;;33.33;nan
53023;BME280;38913;44.338;11.206;2023-07-16T16:44:17;99669.31;;;33.35;nan
53023;BME280;38913;44.338;11.206;2023-07-16T16:46:42;99647.72;;;33.18;nan
53023;BME280;38913;44.338;11.206;2023-07-16T16:49:07;99616.63;;;32.92;nan
53023;BME280;38913;44.338;11.206;2023-07-16T16:51:33;99710.69;;;33.37;nan
53023;BME280;38913;44.338;11.206;2023-07-16T16:53:58;99708.38;;;33.39;nan
53023;BME280;38913;44.338;11.206;2023-07-16T16:56:23;99628.25;;;32.89;nan
53023;BME280;38913;44.338;11.206;2023-07-16T16:58:49;99707.84;;;33.29;nan
53023;BME280;38913;44.338;11.206;2023-07-16T17:01:14;99714.25;;;33.10;nan
53023;BME280;38913;44.338;11.206;2023-07-16T17:03:41;99660.50;;;32.80;nan
53023;BME280;38913;44.338;11.206;2023-07-16T17:06:07;99710.81;;;32.86;nan
53023;BME280;38913;44.338;11.206;2023-07-16T17:08:32;99701.69;;;33.02;nan
53023;BME280;38913;44.338;11.206;2023-07-16T17:10:57;99696.69;;;32.81;nan
53023;BME280;38913;44.338;11.206;2023-07-16T17:13:23;99699.03;;;32.78;nan
53023;BME280;38913;44.338;11.206;2023-07-16T17:15:49;99710.72;;;32.79;nan
53023;BME280;38913;44.338;11.206;2023-07-16T17:18:14;99700.59;;;32.79;nan
53023;BME280;38913;44.338;11.206;2023-07-16T17:20:41;99702.19;;;32.84;nan
53023;BME280;38913;44.338;11.206;2023-07-16T17:23:06;99682.41;;;32.60;nan
53023;BME280;38913;44.338;11.206;2023-07-16T17:25:32;99702.91;;;32.77;nan
53023;BME280;38913;44.338;11.206;2023-07-16T17:27:57;99611.13;;;32.04;nan
53023;BME280;38913;44.338;11.206;2023-07-16T17:30:23;99688.50;;;32.50;nan
53023;BME280;38913;44.338;11.206;2023-07-16T17:32:49;99656.28;;;32.32;nan
53023;BME280;38913;44.338;11.206;2023-07-16T17:35:14;99672.94;;;32.50;nan
53023;BME280;38913;44.338;11.206;2023-07-16T17:37:40;99617.31;;;32.28;nan
53023;BME280;38913;44.338;11.206;2023-07-16T17:40:06;99693.16;;;32.49;nan
53023;BME280;38913;44.338;11.206;2023-07-16T17:42:31;99624.75;;;32.04;nan
53023;BME280;38913;44.338;11.206;2023-07-16T17:44:58;99706.41;;;32.51;nan
53023;BME280;38913;44.338;11.206;2023-07-16T17:47:23;99708.31;;;32.23;nan
53023;BME280;38913;44.338;11.206;2023-07-16T17:49:49;99719.63;;;32.02;nan
53023;BME280;38913;44.338;11.206;2023-07-16T17:52:14;99724.81;;;31.88;nan
53023;BME280;38913;44.338;11.206;2023-07-16T17:54:39;99741.09;;;31.84;nan
53023;BME280;38913;44.338;11.206;2023-07-16T17:57:05;99602.06;;;31.10;nan
53023;BME280;38913;44.338;11.206;2023-07-16T17:59:31;99664.47;;;31.23;nan
53023;BME280;38913;44.338;11.206;2023-07-16T18:01:56;99657.66;;;31.13;nan
53023;BME280;38913;44.338;11.206;2023-07-16T18:04:21;99636.72;;;30.94;nan
53023;BME280;38913;44.338;11.206;2023-07-16T18:06:47;99727.81;;;31.23;nan
53023;BME280;38913;44.338;11.206;2023-07-16T18:09:13;99761.69;;;30.90;nan
53023;BME280;38913;44.338;11.206;2023-07-16T18:11:39;99659.50;;;30.69;nan
53023;BME280;38913;44.338;11.206;2023-07-16T18:14:07;99618.81;;;30.21;nan
53023;BME280;38913;44.338;11.206;2023-07-16T18:16:35;99745.22;;;30.83;nan
53023;BME280;38913;44.338;11.206;2023-07-16T18:19:00;99754.84;;;30.64;nan
53023;BME280;38913;44.338;11.206;2023-07-16T18:21:25;99716.47;;;30.66;nan
53023;BME280;38913;44.338;11.206;2023-07-16T18:23:51;99671.72;;;30.27;nan